sensor_id;sensor_type;location;lat;lon;timestamp;pressure;altitude;pressure_sealevel;temperature;humidity
21185;BME280;18176;49.502;11.754;2023-07-31T00:01:36;96961.03;;;19.87;58.63
21185;BME280;18176;49.502;11.754;2023-07-31T00:05:37;96946.13;;;19.94;58.01
21185;BME280;18176;49.502;11.754;2023-07-31T00:09:37;96952.97;;;19.87;58.56
21185;BME280;18176;49.502;11.754;2023-07-31T00:13:40;96946.94;;;19.71;58.83
21185;BME280;18176;49.502;11.754;2023-07-31T00:17:40;96936.31;;;19.61;58.80
21185;BME280;18176;49.502;11.754;2023-07-31T00:21:41;96958.97;;;19.55;59.34
21185;BME280;18176;49.502;11.754;2023-07-31T00:25:42;96946.22;;;19.42;59.67
21185;BME280;18176;49.502;11.754;2023-07-31T00:29:45;96930.38;;;19.40;58.93
21185;BME280;18176;49.502;11.754;2023-07-31T00:33:45;96949.16;;;19.64;57.31
21185;BME280;18176;49.502;11.754;2023-07-31T00:37:45;96930.94;;;19.61;57.13
21185;BME280;18176;49.502;11.754;2023-07-31T00:41:46;96930.19;;;19.55;56.94
21185;BME280;18176;49.502;11.754;2023-07-31T00:45:49;96934.50;;;19.56;57.21
21185;BME280;18176;49.502;11.754;2023-07-31T00:49:50;96926.84;;;19.45;57.11
21185;BME280;18176;49.502;11.754;2023-07-31T00:53:51;96923.72;;;19.33;57.62
21185;BME280;18176;49.502;11.754;2023-07-31T00:57:53;96922.69;;;19.29;57.75
21185;BME280;18176;49.502;11.754;2023-07-31T01:01:56;96942.00;;;19.31;57.92
21185;BME280;18176;49.502;11.754;2023-07-31T01:06:15;96915.44;;;19.01;57.60
21185;BME280;18176;49.502;11.754;2023-07-31T01:10:23;96939.94;;;19.23;58.41
21185;BME280;18176;49.502;11.754;2023-07-31T01:14:25;96933.88;;;19.12;58.28
21185;BME280;18176;49.502;11.754;2023-07-31T01:18:28;96906.78;;;19.32;57.24
21185;BME280;18176;49.502;11.754;2023-07-31T01:22:58;96908.28;;;19.43;56.99
21185;BME280;18176;49.502;11.754;2023-07-31T01:27:15;96892.94;;;19.49;56.32
21185;BME280;18176;49.502;11.754;2023-07-31T01:31:23;96907.88;;;19.55;56.78
21185;BME280;18176;49.502;11.754;2023-07-31T01:35:25;96905.66;;;19.62;56.84
21185;BME280;18176;49.502;11.754;2023-07-31T01:39:26;96898.25;;;19.54;56.24
21185;BME280;18176;49.502;11.754;2023-07-31T01:43:29;96892.97;;;19.44;56.59
21185;BME280;18176;49.502;11.754;2023-07-31T01:47:29;96905.72;;;19.57;56.72
21185;BME280;18176;49.502;11.754;2023-07-31T01:51:30;96899.22;;;19.63;56.40
21185;BME280;18176;49.502;11.754;2023-07-31T01:55:31;96909.59;;;19.70;56.14
21185;BME280;18176;49.502;11.754;2023-07-31T01:59:34;96897.97;;;19.74;56.17
21185;BME280;18176;49.502;11.754;2023-07-31T02:03:34;96897.69;;;19.76;56.45
21185;BME280;18176;49.502;11.754;2023-07-31T02:07:35;96895.81;;;19.76;55.87
21185;BME280;18176;49.502;11.754;2023-07-31T02:11:35;96900.03;;;19.82;56.41
21185;BME280;18176;49.502;11.754;2023-07-31T02:15:38;96877.03;;;19.71;56.27
21185;BME280;18176;49.502;11.754;2023-07-31T02:19:39;96881.97;;;19.64;56.40
21185;BME280;18176;49.502;11.754;2023-07-31T02:23:39;96881.41;;;19.67;57.07
21185;BME280;18176;49.502;11.754;2023-07-31T02:27:41;96868.38;;;19.55;56.98
21185;BME280;18176;49.502;11.754;2023-07-31T02:31:44;96870.34;;;19.50;56.82
21185;BME280;18176;49.502;11.754;2023-07-31T02:35:44;96863.75;;;19.61;57.01
21185;BME280;18176;49.502;11.754;2023-07-31T02:39:44;96838.66;;;19.47;57.06
21185;BME280;18176;49.502;11.754;2023-07-31T02:43:44;96861.50;;;20.05;55.36
21185;BME280;18176;49.502;11.754;2023-07-31T02:47:48;96857.66;;;19.74;56.39
21185;BME280;18176;49.502;11.754;2023-07-31T02:51:50;96859.63;;;19.87;56.08
21185;BME280;18176;49.502;11.754;2023-07-31T02:55:51;96857.78;;;19.64;56.73
21185;BME280;18176;49.502;11.754;2023-07-31T02:59:51;96849.09;;;19.72;56.72
21185;BME280;18176;49.502;11.754;2023-07-31T03:03:54;96855.84;;;19.88;56.07
21185;BME280;18176;49.502;11.754;2023-07-31T03:07:55;96854.53;;;20.04;55.36
21185;BME280;18176;49.502;11.754;2023-07-31T03:11:55;96853.97;;;20.07;55.34
21185;BME280;18176;49.502;11.754;2023-07-31T03:15:56;96843.41;;;19.92;55.42
21185;BME280;18176;49.502;11.754;2023-07-31T03:19:59;96868.50;;;20.06;55.26
21185;BME280;18176;49.502;11.754;2023-07-31T03:23:59;96871.41;;;19.91;55.36
21185;BME280;18176;49.502;11.754;2023-07-31T03:27:59;96857.72;;;20.06;55.17
21185;BME280;18176;49.502;11.754;2023-07-31T03:32:00;96859.25;;;20.12;55.07
21185;BME280;18176;49.502;11.754;2023-07-31T03:36:04;96836.34;;;19.96;55.28
21185;BME280;18176;49.502;11.754;2023-07-31T03:40:08;96847.41;;;20.13;55.10
21185;BME280;18176;49.502;11.754;2023-07-31T03:44:08;96845.91;;;20.07;55.17
21185;BME280;18176;49.502;11.754;2023-07-31T03:48:08;96845.69;;;20.22;54.73
21185;BME280;18176;49.502;11.754;2023-07-31T03:52:11;96816.88;;;20.04;54.87
21185;BME280;18176;49.502;11.754;2023-07-31T03:56:12;96837.03;;;20.25;54.75
21185;BME280;18176;49.502;11.754;2023-07-31T04:00:13;96849.88;;;20.28;55.27
21185;BME280;18176;49.502;11.754;2023-07-31T04:04:13;96823.59;;;20.25;55.67
21185;BME280;18176;49.502;11.754;2023-07-31T04:08:16;96812.75;;;20.12;55.20
21185;BME280;18176;49.502;11.754;2023-07-31T04:12:17;96837.06;;;20.20;55.91
21185;BME280;18176;49.502;11.754;2023-07-31T04:16:17;96836.97;;;20.31;55.62
21185;BME280;18176;49.502;11.754;2023-07-31T04:20:17;96838.53;;;20.32;55.45
21185;BME280;18176;49.502;11.754;2023-07-31T04:24:20;96830.97;;;20.34;55.39
21185;BME280;18176;49.502;11.754;2023-07-31T04:28:22;96836.63;;;20.51;55.46
21185;BME280;18176;49.502;11.754;2023-07-31T04:32:23;96835.81;;;20.50;55.29
21185;BME280;18176;49.502;11.754;2023-07-31T04:36:24;96839.34;;;20.64;54.94
21185;BME280;18176;49.502;11.754;2023-07-31T04:40:27;96835.88;;;20.77;54.52
21185;BME280;18176;49.502;11.754;2023-07-31T04:44:27;96834.38;;;20.85;54.66
21185;BME280;18176;49.502;11.754;2023-07-31T04:48:27;96822.31;;;20.96;54.07
21185;BME280;18176;49.502;11.754;2023-07-31T04:52:28;96810.06;;;20.90;54.04
21185;BME280;18176;49.502;11.754;2023-07-31T04:56:31;96818.97;;;21.18;53.33
21185;BME280;18176;49.502;11.754;2023-07-31T05:00:31;96825.34;;;21.35;52.85
21185;BME280;18176;49.502;11.754;2023-07-31T05:04:31;96777.06;;;21.12;52.82
21185;BME280;18176;49.502;11.754;2023-07-31T05:08:32;96830.53;;;21.45;52.22
21185;BME280;18176;49.502;11.754;2023-07-31T05:12:35;96808.06;;;20.95;52.51
21185;BME280;18176;49.502;11.754;2023-07-31T05:16:35;96784.94;;;21.08;52.03
21185;BME280;18176;49.502;11.754;2023-07-31T05:20:36;96817.84;;;21.32;51.79
21185;BME280;18176;49.502;11.754;2023-07-31T05:24:37;96821.56;;;21.09;52.21
21185;BME280;18176;49.502;11.754;2023-07-31T05:28:40;96815.00;;;21.15;52.41
21185;BME280;18176;49.502;11.754;2023-07-31T05:32:40;96796.31;;;21.05;52.53
21185;BME280;18176;49.502;11.754;2023-07-31T05:36:40;96804.28;;;21.37;52.31
21185;BME280;18176;49.502;11.754;2023-07-31T05:40:42;96815.28;;;21.27;51.66
21185;BME280;18176;49.502;11.754;2023-07-31T05:44:45;96795.00;;;21.30;50.65
21185;BME280;18176;49.502;11.754;2023-07-31T05:48:45;96825.50;;;21.80;51.05
21185;BME280;18176;49.502;11.754;2023-07-31T05:52:46;96821.00;;;22.11;50.16
21185;BME280;18176;49.502;11.754;2023-07-31T05:56:46;96805.25;;;22.49;48.51
21185;BME280;18176;49.502;11.754;2023-07-31T06:00:49;96816.19;;;22.21;49.42
21185;BME280;18176;49.502;11.754;2023-07-31T06:04:49;96816.22;;;22.52;48.67
21185;BME280;18176;49.502;11.754;2023-07-31T06:08:50;96804.22;;;22.89;47.87
21185;BME280;18176;49.502;11.754;2023-07-31T06:12:50;96808.66;;;23.33;47.36
21185;BME280;18176;49.502;11.754;2023-07-31T06:16:53;96812.88;;;23.39;46.69
21185;BME280;18176;49.502;11.754;2023-07-31T06:20:54;96813.81;;;23.43;46.84
21185;BME280;18176;49.502;11.754;2023-07-31T06:24:54;96814.50;;;23.18;47.04
21185;BME280;18176;49.502;11.754;2023-07-31T06:28:55;96799.13;;;23.27;46.37
21185;BME280;18176;49.502;11.754;2023-07-31T06:32:58;96817.13;;;23.00;47.33
21185;BME280;18176;49.502;11.754;2023-07-31T06:36:58;96823.69;;;23.08;47.08
21185;BME280;18176;49.502;11.754;2023-07-31T06:40:58;96811.25;;;23.38;47.05
21185;BME280;18176;49.502;11.754;2023-07-31T06:44:59;96805.94;;;23.16;46.89
21185;BME280;18176;49.502;11.754;2023-07-31T06:49:02;96787.69;;;22.60;47.21
21185;BME280;18176;49.502;11.754;2023-07-31T06:53:03;96817.34;;;22.73;47.81
21185;BME280;18176;49.502;11.754;2023-07-31T06:57:10;96799.34;;;22.99;47.17
21185;BME280;18176;49.502;11.754;2023-07-31T07:01:11;96824.56;;;23.26;46.41
21185;BME280;18176;49.502;11.754;2023-07-31T07:05:14;96814.31;;;23.45;46.12
21185;BME280;18176;49.502;11.754;2023-07-31T07:09:17;96804.81;;;23.82;45.85
21185;BME280;18176;49.502;11.754;2023-07-31T07:13:17;96805.44;;;24.56;44.07
21185;BME280;18176;49.502;11.754;2023-07-31T07:17:18;96811.69;;;23.96;44.95
21185;BME280;18176;49.502;11.754;2023-07-31T07:21:25;96804.34;;;24.05;45.22
21185;BME280;18176;49.502;11.754;2023-07-31T07:25:25;96808.81;;;24.01;45.69
21185;BME280;18176;49.502;11.754;2023-07-31T07:29:26;96801.34;;;24.24;44.39
21185;BME280;18176;49.502;11.754;2023-07-31T07:33:26;96822.69;;;24.25;45.37
21185;BME280;18176;49.502;11.754;2023-07-31T07:37:29;96802.75;;;24.38;45.09
21185;BME280;18176;49.502;11.754;2023-07-31T07:41:30;96810.66;;;24.69;44.15
21185;BME280;18176;49.502;11.754;2023-07-31T07:45:30;96816.78;;;24.49;43.96
21185;BME280;18176;49.502;11.754;2023-07-31T07:49:30;96812.59;;;23.66;45.14
21185;BME280;18176;49.502;11.754;2023-07-31T07:53:33;96805.19;;;24.06;45.03
21185;BME280;18176;49.502;11.754;2023-07-31T07:57:34;96808.84;;;24.18;44.91
21185;BME280;18176;49.502;11.754;2023-07-31T08:01:35;96815.19;;;24.05;45.55
21185;BME280;18176;49.502;11.754;2023-07-31T08:05:38;96818.78;;;24.69;44.05
21185;BME280;18176;49.502;11.754;2023-07-31T08:09:42;96818.06;;;25.06;43.16
21185;BME280;18176;49.502;11.754;2023-07-31T08:13:43;96781.38;;;24.46;44.09
21185;BME280;18176;49.502;11.754;2023-07-31T08:17:43;96817.28;;;25.06;43.16
21185;BME280;18176;49.502;11.754;2023-07-31T08:21:43;96813.16;;;25.00;43.28
21185;BME280;18176;49.502;11.754;2023-07-31T08:25:47;96807.28;;;25.86;42.50
21185;BME280;18176;49.502;11.754;2023-07-31T08:29:48;96802.59;;;26.36;41.10
21185;BME280;18176;49.502;11.754;2023-07-31T08:33:49;96789.84;;;25.66;41.89
21185;BME280;18176;49.502;11.754;2023-07-31T08:37:50;96794.31;;;26.12;41.49
21185;BME280;18176;49.502;11.754;2023-07-31T08:41:58;96792.31;;;25.79;41.67
21185;BME280;18176;49.502;11.754;2023-07-31T08:45:59;96794.75;;;26.34;41.25
21185;BME280;18176;49.502;11.754;2023-07-31T08:50:01;96783.53;;;27.38;39.90
21185;BME280;18176;49.502;11.754;2023-07-31T08:54:02;96779.25;;;27.89;38.84
21185;BME280;18176;49.502;11.754;2023-07-31T08:58:06;96776.03;;;27.71;39.41
21185;BME280;18176;49.502;11.754;2023-07-31T09:02:08;96756.78;;;26.91;39.57
21185;BME280;18176;49.502;11.754;2023-07-31T09:06:09;96739.78;;;27.43;38.34
21185;BME280;18176;49.502;11.754;2023-07-31T09:10:10;96757.22;;;27.54;38.54
21185;BME280;18176;49.502;11.754;2023-07-31T09:14:15;96754.69;;;27.73;37.84
21185;BME280;18176;49.502;11.754;2023-07-31T09:18:16;96755.84;;;27.36;38.86
21185;BME280;18176;49.502;11.754;2023-07-31T09:22:32;96745.88;;;27.03;38.56
21185;BME280;18176;49.502;11.754;2023-07-31T09:26:35;96767.75;;;28.19;37.41
21185;BME280;18176;49.502;11.754;2023-07-31T09:30:49;96750.97;;;30.27;34.33
21185;BME280;18176;49.502;11.754;2023-07-31T09:34:50;96743.34;;;29.63;35.09
21185;BME280;18176;49.502;11.754;2023-07-31T09:38:50;96754.19;;;28.94;35.17
21185;BME280;18176;49.502;11.754;2023-07-31T09:42:51;96746.69;;;29.22;35.03
21185;BME280;18176;49.502;11.754;2023-07-31T09:46:54;96724.44;;;28.02;36.73
21185;BME280;18176;49.502;11.754;2023-07-31T09:50:55;96759.69;;;27.59;37.66
21185;BME280;18176;49.502;11.754;2023-07-31T09:54:55;96749.03;;;27.66;37.55
21185;BME280;18176;49.502;11.754;2023-07-31T09:58:56;96740.00;;;28.29;36.55
21185;BME280;18176;49.502;11.754;2023-07-31T10:03:04;96709.06;;;28.37;35.77
21185;BME280;18176;49.502;11.754;2023-07-31T10:07:06;96703.47;;;27.51;37.01
21185;BME280;18176;49.502;11.754;2023-07-31T10:11:10;96701.81;;;28.73;36.46
21185;BME280;18176;49.502;11.754;2023-07-31T10:15:11;96717.28;;;28.25;36.04
21185;BME280;18176;49.502;11.754;2023-07-31T10:19:14;96695.19;;;28.58;36.42
21185;BME280;18176;49.502;11.754;2023-07-31T10:23:15;96672.97;;;29.57;34.24
21185;BME280;18176;49.502;11.754;2023-07-31T10:27:16;96649.91;;;28.69;35.06
21185;BME280;18176;49.502;11.754;2023-07-31T10:31:19;96690.91;;;28.88;35.35
21185;BME280;18176;49.502;11.754;2023-07-31T10:35:23;96683.94;;;28.91;35.68
21185;BME280;18176;49.502;11.754;2023-07-31T10:39:38;96687.50;;;28.48;35.84
21185;BME280;18176;49.502;11.754;2023-07-31T10:43:41;96695.81;;;28.08;36.57
21185;BME280;18176;49.502;11.754;2023-07-31T10:47:44;96686.06;;;27.40;37.78
21185;BME280;18176;49.502;11.754;2023-07-31T10:51:48;96653.84;;;27.30;38.22
21185;BME280;18176;49.502;11.754;2023-07-31T10:55:49;96665.59;;;27.86;37.92
21185;BME280;18176;49.502;11.754;2023-07-31T11:00:20;96668.13;;;28.06;36.44
21185;BME280;18176;49.502;11.754;2023-07-31T11:04:24;96632.13;;;27.85;36.97
21185;BME280;18176;49.502;11.754;2023-07-31T11:08:29;96654.34;;;28.30;36.60
21185;BME280;18176;49.502;11.754;2023-07-31T11:12:30;96640.44;;;27.49;36.82
21185;BME280;18176;49.502;11.754;2023-07-31T11:16:31;96619.44;;;28.05;36.47
21185;BME280;18176;49.502;11.754;2023-07-31T11:20:36;96594.72;;;27.70;36.24
21185;BME280;18176;49.502;11.754;2023-07-31T11:24:40;96632.06;;;28.72;34.70
21185;BME280;18176;49.502;11.754;2023-07-31T11:28:41;96609.38;;;28.36;35.29
21185;BME280;18176;49.502;11.754;2023-07-31T11:32:41;96622.22;;;27.93;36.13
21185;BME280;18176;49.502;11.754;2023-07-31T11:36:55;96622.88;;;28.17;35.57
21185;BME280;18176;49.502;11.754;2023-07-31T11:41:02;96628.16;;;28.88;34.96
21185;BME280;18176;49.502;11.754;2023-07-31T11:45:10;96623.25;;;29.13;34.58
21185;BME280;18176;49.502;11.754;2023-07-31T11:49:10;96619.31;;;29.26;34.49
21185;BME280;18176;49.502;11.754;2023-07-31T11:53:11;96614.47;;;29.19;34.67
21185;BME280;18176;49.502;11.754;2023-07-31T11:57:14;96615.50;;;28.96;35.00
21185;BME280;18176;49.502;11.754;2023-07-31T12:01:18;96602.75;;;28.53;35.15
21185;BME280;18176;49.502;11.754;2023-07-31T12:05:19;96608.63;;;28.86;35.98
21185;BME280;18176;49.502;11.754;2023-07-31T12:09:20;96593.66;;;28.96;35.69
21185;BME280;18176;49.502;11.754;2023-07-31T12:13:25;96605.22;;;28.89;35.00
21185;BME280;18176;49.502;11.754;2023-07-31T12:17:27;96606.31;;;29.04;34.93
21185;BME280;18176;49.502;11.754;2023-07-31T12:21:28;96600.63;;;29.28;35.23
21185;BME280;18176;49.502;11.754;2023-07-31T12:25:33;96600.59;;;30.05;34.09
21185;BME280;18176;49.502;11.754;2023-07-31T12:29:41;96598.63;;;29.82;34.38
21185;BME280;18176;49.502;11.754;2023-07-31T12:33:45;96575.63;;;29.64;34.51
21185;BME280;18176;49.502;11.754;2023-07-31T12:37:49;96588.41;;;29.79;34.44
21185;BME280;18176;49.502;11.754;2023-07-31T12:41:50;96589.13;;;28.84;35.37
21185;BME280;18176;49.502;11.754;2023-07-31T12:45:55;96585.59;;;28.84;35.12
21185;BME280;18176;49.502;11.754;2023-07-31T12:49:55;96580.53;;;28.35;35.49
21185;BME280;18176;49.502;11.754;2023-07-31T12:53:55;96548.00;;;28.42;35.62
21185;BME280;18176;49.502;11.754;2023-07-31T12:57:56;96561.84;;;29.03;35.24
21185;BME280;18176;49.502;11.754;2023-07-31T13:01:59;96544.88;;;29.29;35.11
21185;BME280;18176;49.502;11.754;2023-07-31T13:05:59;96532.59;;;29.19;34.82
21185;BME280;18176;49.502;11.754;2023-07-31T13:10:00;96545.06;;;29.59;35.53
21185;BME280;18176;49.502;11.754;2023-07-31T13:14:00;96534.97;;;30.01;34.32
21185;BME280;18176;49.502;11.754;2023-07-31T13:18:03;96523.91;;;29.14;35.23
21185;BME280;18176;49.502;11.754;2023-07-31T13:22:04;96518.44;;;29.14;35.16
21185;BME280;18176;49.502;11.754;2023-07-31T13:26:06;96526.94;;;29.89;34.71
21185;BME280;18176;49.502;11.754;2023-07-31T13:30:10;96514.09;;;31.20;32.44
21185;BME280;18176;49.502;11.754;2023-07-31T13:34:13;96517.78;;;31.65;32.20
21185;BME280;18176;49.502;11.754;2023-07-31T13:38:16;96498.91;;;31.97;31.92
21185;BME280;18176;49.502;11.754;2023-07-31T13:42:17;96490.91;;;32.21;30.76
21185;BME280;18176;49.502;11.754;2023-07-31T13:46:17;96495.28;;;31.89;31.73
21185;BME280;18176;49.502;11.754;2023-07-31T13:50:20;96495.03;;;30.42;33.11
21185;BME280;18176;49.502;11.754;2023-07-31T13:54:23;96492.91;;;30.09;33.47
21185;BME280;18176;49.502;11.754;2023-07-31T13:58:27;96491.47;;;29.28;35.37
21185;BME280;18176;49.502;11.754;2023-07-31T14:02:27;96473.81;;;30.88;33.12
21185;BME280;18176;49.502;11.754;2023-07-31T14:06:30;96469.13;;;31.51;32.67
21185;BME280;18176;49.502;11.754;2023-07-31T14:10:31;96470.50;;;30.45;32.80
21185;BME280;18176;49.502;11.754;2023-07-31T14:14:32;96471.97;;;31.29;32.26
21185;BME280;18176;49.502;11.754;2023-07-31T14:18:34;96470.75;;;30.93;32.83
21185;BME280;18176;49.502;11.754;2023-07-31T14:22:37;96477.97;;;30.26;33.64
21185;BME280;18176;49.502;11.754;2023-07-31T14:26:38;96467.53;;;29.63;34.46
21185;BME280;18176;49.502;11.754;2023-07-31T14:30:39;96435.31;;;29.72;34.62
21185;BME280;18176;49.502;11.754;2023-07-31T14:34:39;96456.66;;;30.91;33.65
21185;BME280;18176;49.502;11.754;2023-07-31T14:38:42;96462.25;;;31.01;33.17
21185;BME280;18176;49.502;11.754;2023-07-31T14:42:42;96470.41;;;30.68;33.01
21185;BME280;18176;49.502;11.754;2023-07-31T14:46:44;96468.06;;;29.72;34.09
21185;BME280;18176;49.502;11.754;2023-07-31T14:50:44;96453.16;;;29.66;34.35
21185;BME280;18176;49.502;11.754;2023-07-31T14:54:47;96470.66;;;29.84;34.68
21185;BME280;18176;49.502;11.754;2023-07-31T14:58:47;96463.34;;;30.67;33.34
21185;BME280;18176;49.502;11.754;2023-07-31T15:02:48;96471.78;;;29.61;34.60
21185;BME280;18176;49.502;11.754;2023-07-31T15:06:49;96469.50;;;30.08;34.02
21185;BME280;18176;49.502;11.754;2023-07-31T15:10:54;96457.50;;;29.90;34.50
21185;BME280;18176;49.502;11.754;2023-07-31T15:14:56;96416.78;;;30.08;34.10
21185;BME280;18176;49.502;11.754;2023-07-31T15:18:56;96419.44;;;29.55;34.55
21185;BME280;18176;49.502;11.754;2023-07-31T15:22:56;96445.50;;;29.30;34.79
21185;BME280;18176;49.502;11.754;2023-07-31T15:26:59;96397.97;;;28.93;34.71
21185;BME280;18176;49.502;11.754;2023-07-31T15:31:00;96421.06;;;28.99;35.71
21185;BME280;18176;49.502;11.754;2023-07-31T15:35:00;96443.66;;;29.79;34.87
21185;BME280;18176;49.502;11.754;2023-07-31T15:39:01;96419.09;;;30.32;34.08
21185;BME280;18176;49.502;11.754;2023-07-31T15:43:04;96426.56;;;30.61;33.71
21185;BME280;18176;49.502;11.754;2023-07-31T15:47:05;96420.38;;;29.89;35.00
21185;BME280;18176;49.502;11.754;2023-07-31T15:51:05;96425.59;;;29.52;34.70
21185;BME280;18176;49.502;11.754;2023-07-31T15:55:07;96420.69;;;29.39;35.15
21185;BME280;18176;49.502;11.754;2023-07-31T15:59:10;96387.88;;;29.35;35.14
21185;BME280;18176;49.502;11.754;2023-07-31T16:03:10;96384.75;;;28.95;35.33
21185;BME280;18176;49.502;11.754;2023-07-31T16:07:11;96387.06;;;28.74;35.65
21185;BME280;18176;49.502;11.754;2023-07-31T16:11:12;96402.06;;;29.44;34.66
21185;BME280;18176;49.502;11.754;2023-07-31T16:15:15;96406.06;;;29.50;35.08
21185;BME280;18176;49.502;11.754;2023-07-31T16:19:15;96356.41;;;28.80;35.46
21185;BME280;18176;49.502;11.754;2023-07-31T16:23:16;96383.06;;;29.29;35.32
21185;BME280;18176;49.502;11.754;2023-07-31T16:27:17;96390.25;;;29.37;35.39
21185;BME280;18176;49.502;11.754;2023-07-31T16:31:23;96386.63;;;29.10;35.18
21185;BME280;18176;49.502;11.754;2023-07-31T16:35:31;96382.66;;;29.49;34.88
21185;BME280;18176;49.502;11.754;2023-07-31T16:39:31;96383.84;;;29.29;35.08
21185;BME280;18176;49.502;11.754;2023-07-31T16:43:33;96380.00;;;30.02;33.93
21185;BME280;18176;49.502;11.754;2023-07-31T16:47:36;96364.75;;;31.23;32.32
21185;BME280;18176;49.502;11.754;2023-07-31T16:51:36;96367.81;;;32.02;31.15
21185;BME280;18176;49.502;11.754;2023-07-31T16:55:37;96380.06;;;31.68;31.57
21185;BME280;18176;49.502;11.754;2023-07-31T16:59:38;96370.84;;;31.43;31.77
21185;BME280;18176;49.502;11.754;2023-07-31T17:03:41;96359.78;;;30.95;31.98
21185;BME280;18176;49.502;11.754;2023-07-31T17:07:41;96319.00;;;30.87;32.22
21185;BME280;18176;49.502;11.754;2023-07-31T17:11:42;96314.84;;;30.04;33.25
21185;BME280;18176;49.502;11.754;2023-07-31T17:15:42;96350.19;;;29.67;34.71
21185;BME280;18176;49.502;11.754;2023-07-31T17:19:45;96357.63;;;29.21;35.26
21185;BME280;18176;49.502;11.754;2023-07-31T17:23:46;96358.72;;;28.78;35.93
21185;BME280;18176;49.502;11.754;2023-07-31T17:27:46;96345.84;;;28.21;36.47
21185;BME280;18176;49.502;11.754;2023-07-31T17:31:49;96345.03;;;27.86;37.05
21185;BME280;18176;49.502;11.754;2023-07-31T17:35:53;96344.13;;;28.13;37.04
21185;BME280;18176;49.502;11.754;2023-07-31T17:39:53;96345.75;;;28.52;36.45
21185;BME280;18176;49.502;11.754;2023-07-31T17:43:54;96351.94;;;28.15;36.77
21185;BME280;18176;49.502;11.754;2023-07-31T17:47:54;96346.88;;;28.32;36.86
21185;BME280;18176;49.502;11.754;2023-07-31T17:51:57;96358.78;;;27.43;38.22
21185;BME280;18176;49.502;11.754;2023-07-31T17:55:58;96333.06;;;27.40;38.37
21185;BME280;18176;49.502;11.754;2023-07-31T17:59:58;96343.69;;;27.30;38.59
21185;BME280;18176;49.502;11.754;2023-07-31T18:04:03;96343.88;;;27.37;38.36
21185;BME280;18176;49.502;11.754;2023-07-31T18:08:06;96344.09;;;27.32;38.33
21185;BME280;18176;49.502;11.754;2023-07-31T18:12:08;96328.59;;;27.17;38.20
21185;BME280;18176;49.502;11.754;2023-07-31T18:16:08;96332.88;;;27.02;39.17
21185;BME280;18176;49.502;11.754;2023-07-31T18:20:10;96323.31;;;27.08;38.50
21185;BME280;18176;49.502;11.754;2023-07-31T18:24:16;96334.34;;;26.99;38.93
21185;BME280;18176;49.502;11.754;2023-07-31T18:28:16;96344.28;;;27.07;39.10
21185;BME280;18176;49.502;11.754;2023-07-31T18:32:16;96318.72;;;26.96;38.99
21185;BME280;18176;49.502;11.754;2023-07-31T18:36:17;96345.47;;;26.79;39.81
21185;BME280;18176;49.502;11.754;2023-07-31T18:40:20;96340.16;;;27.13;39.18
21185;BME280;18176;49.502;11.754;2023-07-31T18:44:20;96319.31;;;26.74;39.62
21185;BME280;18176;49.502;11.754;2023-07-31T18:48:23;96320.75;;;26.84;39.44
21185;BME280;18176;49.502;11.754;2023-07-31T18:52:23;96326.50;;;26.82;39.90
21185;BME280;18176;49.502;11.754;2023-07-31T18:56:26;96335.56;;;26.59;40.32
21185;BME280;18176;49.502;11.754;2023-07-31T19:00:26;96316.66;;;26.50;40.32
21185;BME280;18176;49.502;11.754;2023-07-31T19:04:27;96339.75;;;26.56;40.62
21185;BME280;18176;49.502;11.754;2023-07-31T19:08:27;96313.41;;;26.72;39.87
21185;BME280;18176;49.502;11.754;2023-07-31T19:12:30;96315.63;;;26.82;39.94
21185;BME280;18176;49.502;11.754;2023-07-31T19:16:31;96289.19;;;26.67;39.99
21185;BME280;18176;49.502;11.754;2023-07-31T19:20:32;96304.91;;;26.46;40.87
21185;BME280;18176;49.502;11.754;2023-07-31T19:24:32;96312.91;;;26.82;40.61
21185;BME280;18176;49.502;11.754;2023-07-31T19:28:36;96309.91;;;26.44;40.99
21185;BME280;18176;49.502;11.754;2023-07-31T19:32:47;96208.13;;;25.98;40.96
21185;BME280;18176;49.502;11.754;2023-07-31T19:36:48;96213.06;;;25.81;41.83
21185;BME280;18176;49.502;11.754;2023-07-31T19:40:52;96287.84;;;26.06;42.07
21185;BME280;18176;49.502;11.754;2023-07-31T19:44:55;96288.75;;;26.22;41.91
21185;BME280;18176;49.502;11.754;2023-07-31T19:48:56;96278.34;;;26.12;42.08
21185;BME280;18176;49.502;11.754;2023-07-31T19:52:57;96288.28;;;26.20;42.04
21185;BME280;18176;49.502;11.754;2023-07-31T19:56:58;96301.88;;;26.20;42.37
21185;BME280;18176;49.502;11.754;2023-07-31T20:01:03;96284.00;;;26.07;42.62
21185;BME280;18176;49.502;11.754;2023-07-31T20:05:06;96292.63;;;25.97;42.78
21185;BME280;18176;49.502;11.754;2023-07-31T20:09:07;96289.66;;;26.02;42.09
21185;BME280;18176;49.502;11.754;2023-07-31T20:13:11;96244.97;;;25.71;42.00
21185;BME280;18176;49.502;11.754;2023-07-31T20:17:14;96286.41;;;25.96;42.08
21185;BME280;18176;49.502;11.754;2023-07-31T20:21:15;96300.34;;;25.95;42.51
21185;BME280;18176;49.502;11.754;2023-07-31T20:25:16;96251.53;;;25.70;42.76
21185;BME280;18176;49.502;11.754;2023-07-31T20:29:17;96261.69;;;25.73;43.10
21185;BME280;18176;49.502;11.754;2023-07-31T20:33:20;96274.84;;;25.71;44.44
21185;BME280;18176;49.502;11.754;2023-07-31T20:37:21;96292.56;;;25.33;47.22
21185;BME280;18176;49.502;11.754;2023-07-31T20:41:23;96289.16;;;24.87;49.85
21185;BME280;18176;49.502;11.754;2023-07-31T20:45:27;96292.56;;;24.64;49.34
21185;BME280;18176;49.502;11.754;2023-07-31T20:49:31;96240.44;;;24.22;49.62
21185;BME280;18176;49.502;11.754;2023-07-31T20:53:32;96244.38;;;24.24;49.80
21185;BME280;18176;49.502;11.754;2023-07-31T20:57:33;96262.66;;;24.27;51.33
21185;BME280;18176;49.502;11.754;2023-07-31T21:01:33;96256.00;;;24.04;52.42
21185;BME280;18176;49.502;11.754;2023-07-31T21:05:37;96282.22;;;23.71;53.76